Time;durP1;ratioP1;P1;durP2;ratioP2;P2;SDS_P1;SDS_P2;PMS_P1;PMS_P2;Temp;Humidity;BMP_temperature;BMP_pressure;BME280_temperature;BME280_humidity;BME280_pressure;Samples;Min_cycle;Max_cycle;Signal;HPM_P1;HPM_P2
2023/08/10 00:01:57;;;;;;;1.58;0.22;;;;;;;35.01;47.24;100118.06;7391860;19;20513;-57
2023/08/10 00:04:23;;;;;;;0.10;0.10;;;;;;;34.80;46.84;100114.69;7395602;19;20046;-57
2023/08/10 00:06:49;;;;;;;0.50;0.40;;;;;;;34.44;47.55;100119.19;7392005;19;20078;-57
2023/08/10 00:09:16;;;;;;;0.63;0.17;;;;;;;33.95;48.45;100114.88;7393698;19;20017;-57
2023/08/10 00:11:42;;;;;;;4.75;0.75;;;;;;;34.00;47.95;100117.38;7393024;19;20011;-56
2023/08/10 00:14:09;;;;;;;3.15;0.40;;;;;;;33.63;48.16;100119.53;7395028;19;20034;-57
2023/08/10 00:16:35;;;;;;;0.55;0.22;;;;;;;33.56;48.93;100120.53;7393070;19;20350;-57
2023/08/10 00:19:01;;;;;;;0.20;0.10;;;;;;;33.14;49.20;100115.03;7393601;19;20531;-57
2023/08/10 00:21:28;;;;;;;0.38;0.30;;;;;;;32.88;49.72;100119.91;7392944;19;20074;-57
2023/08/10 00:23:56;;;;;;;0.10;0.10;;;;;;;32.44;50.15;100117.84;7393156;19;20014;-57
2023/08/10 00:26:23;;;;;;;0.05;0.05;;;;;;;32.92;49.82;100116.56;7391839;19;20014;-57
2023/08/10 00:28:50;;;;;;;0.10;0.10;;;;;;;32.29;50.70;100121.19;7392976;19;20007;-57
2023/08/10 00:31:17;;;;;;;0.10;0.10;;;;;;;32.48;50.83;100114.50;7392934;19;20027;-57
2023/08/10 00:33:43;;;;;;;0.68;0.22;;;;;;;33.41;48.83;100121.06;7394254;19;20015;-57
2023/08/10 00:36:09;;;;;;;0.63;0.40;;;;;;;33.68;48.60;100115.47;7392961;19;20014;-57
2023/08/10 00:38:38;;;;;;;0.40;0.40;;;;;;;33.57;47.97;100116.25;7394271;19;20023;-57
2023/08/10 00:41:04;;;;;;;1.05;0.40;;;;;;;32.75;48.99;100115.53;7393305;19;20027;-57
2023/08/10 00:43:30;;;;;;;0.10;0.10;;;;;;;33.05;48.61;100113.06;7393199;19;20042;-57
2023/08/10 00:45:58;;;;;;;0.65;0.30;;;;;;;33.22;48.58;100113.44;7391159;19;20035;-57
2023/08/10 00:48:24;;;;;;;3.05;0.65;;;;;;;33.49;47.43;100115.75;7391186;19;20014;-58
2023/08/10 00:50:52;;;;;;;0.55;0.10;;;;;;;33.18;48.05;100109.53;7393244;19;20007;-57
2023/08/10 00:53:18;;;;;;;0.20;0.20;;;;;;;33.74;46.80;100112.22;7391901;19;20439;-57
2023/08/10 00:55:51;;;;;;;0.28;0.10;;;;;;;33.90;46.61;100119.69;7397116;19;20413;-57
2023/08/10 00:58:23;;;;;;;12.23;0.68;;;;;;;33.07;47.51;100116.81;7391523;19;20471;-57
2023/08/10 01:00:50;;;;;;;0.20;0.20;;;;;;;34.51;45.22;100117.41;7392985;19;20427;-57
2023/08/10 01:03:16;;;;;;;0.10;0.08;;;;;;;33.94;45.73;100125.69;7393169;19;20015;-58
2023/08/10 01:06:12;;;;;;;0.10;0.10;;;;;;;33.46;46.50;100125.69;7391015;19;20131;-57
2023/08/10 01:08:51;;;;;;;0.20;0.10;;;;;;;31.94;49.26;100120.28;7399745;19;20101;-56
2023/08/10 01:11:26;;;;;;;0.25;0.10;;;;;;;31.20;50.60;100119.56;7398487;19;20011;-56
2023/08/10 01:14:19;;;;;;;0.80;0.63;;;;;;;31.22;50.76;100122.59;7398834;19;20018;-57
2023/08/10 01:16:50;;;;;;;0.10;0.10;;;;;;;31.67;49.73;100119.88;7400279;19;20029;-57
2023/08/10 01:19:35;;;;;;;0.60;0.20;;;;;;;31.49;50.43;100124.44;7399261;19;20394;-57
2023/08/10 01:22:55;;;;;;;0.43;0.22;;;;;;;31.49;50.41;100115.78;7398020;19;20021;-58
2023/08/10 01:25:23;;;;;;;1.50;0.10;;;;;;;30.78;51.31;100119.44;7401198;19;20401;-57
2023/08/10 01:27:50;;;;;;;0.40;0.20;;;;;;;30.57;52.29;100116.50;7398867;19;20018;-57
2023/08/10 01:30:16;;;;;;;0.10;0.00;;;;;;;30.19;53.55;100123.03;7399024;19;20026;-57
2023/08/10 01:32:42;;;;;;;3.97;0.43;;;;;;;30.17;54.07;100116.41;7396863;19;20021;-57
2023/08/10 01:35:10;;;;;;;0.25;0.10;;;;;;;30.97;52.53;100113.63;7402272;19;20471;-57
2023/08/10 01:37:37;;;;;;;0.90;0.30;;;;;;;30.62;53.05;100113.28;7398919;19;20471;-57
2023/08/10 01:40:13;;;;;;;1.50;0.22;;;;;;;31.08;51.87;100106.47;7401388;19;20041;-58
2023/08/10 01:42:48;;;;;;;2.72;0.40;;;;;;;30.65;52.20;100117.06;7397177;19;20031;-57
2023/08/10 01:45:40;;;;;;;0.32;0.10;;;;;;;30.97;51.65;100113.63;7399867;19;20579;-58
2023/08/10 01:48:37;;;;;;;0.20;0.20;;;;;;;32.61;48.78;100117.53;7397847;19;20011;-57
2023/08/10 01:51:14;;;;;;;0.28;0.10;;;;;;;32.48;48.08;100114.50;7396560;19;20021;-57
2023/08/10 01:54:08;;;;;;;0.20;0.03;;;;;;;32.06;48.49;100112.47;7398110;19;20399;-57
2023/08/10 01:56:43;;;;;;;0.20;0.20;;;;;;;33.29;46.70;100108.75;7397186;19;20070;-57
2023/08/10 01:59:14;;;;;;;2.38;0.03;;;;;;;33.83;44.95;100103.38;7397633;19;20526;-57
2023/08/10 02:01:45;;;;;;;0.73;0.43;;;;;;;33.73;45.21;100111.44;7396138;19;20015;-57
2023/08/10 02:04:30;;;;;;;0.43;0.20;;;;;;;32.94;45.58;100116.69;7397875;19;20034;-57
2023/08/10 02:07:02;;;;;;;;;;;;;;;32.90;46.02;100117.16;7396002;19;20026;-57
2023/08/10 02:09:30;;;;;;;0.10;0.10;;;;;;;32.76;46.17;100110.50;7394775;19;19950;-57
2023/08/10 02:19:14;;;;;;;0.10;0.00;;;;;;;32.35;46.95;100112.94;7392915;19;20025;-58
2023/08/10 02:25:45;;;;;;;1.30;0.57;;;;;;;31.64;48.72;100109.63;7397606;19;20030;-56
2023/08/10 02:28:11;;;;;;;4.22;0.90;;;;;;;32.19;47.82;100106.09;7393877;19;20032;-56
2023/08/10 02:30:38;;;;;;;0.30;0.08;;;;;;;32.29;47.24;100109.66;7394606;19;20017;-56
2023/08/10 02:33:05;;;;;;;0.40;0.20;;;;;;;31.77;47.50;100100.41;7393598;19;20051;-56
2023/08/10 02:35:31;;;;;;;0.13;0.13;;;;;;;33.05;45.37;100096.47;7398203;19;20019;-56
2023/08/10 02:37:57;;;;;;;0.15;0.10;;;;;;;31.79;46.59;100104.19;7394950;19;20026;-56
2023/08/10 02:40:24;;;;;;;0.52;0.20;;;;;;;31.17;48.10;100106.41;7397684;19;20029;-58
2023/08/10 02:42:57;;;;;;;0.50;0.22;;;;;;;31.16;48.16;100096.28;7394603;19;20010;-56
2023/08/10 02:45:29;;;;;;;0.10;0.10;;;;;;;32.07;46.92;100105.34;7397649;19;20021;-57
2023/08/10 02:48:00;;;;;;;1.77;0.30;;;;;;;32.94;45.15;100103.00;7396568;19;20014;-56
2023/08/10 02:50:30;;;;;;;0.55;0.20;;;;;;;33.31;44.55;100100.25;7396077;19;20519;-59
2023/08/10 02:53:13;;;;;;;0.30;0.20;;;;;;;32.37;45.75;100095.00;7396213;19;20010;-57
2023/08/10 02:55:40;;;;;;;1.27;0.32;;;;;;;32.50;45.36;100094.44;7399374;19;20467;-55
2023/08/10 02:58:06;;;;;;;0.22;0.22;;;;;;;32.87;44.42;100099.00;7395801;19;20010;-56
2023/08/10 03:00:32;;;;;;;0.30;0.30;;;;;;;33.26;43.65;100086.94;7396130;19;20006;-56
2023/08/10 03:02:59;;;;;;;2.30;0.20;;;;;;;33.74;42.71;100084.06;7395292;19;20015;-56
2023/08/10 03:05:26;;;;;;;0.10;0.00;;;;;;;33.25;43.49;100091.19;7399156;19;20473;-56
2023/08/10 03:07:52;;;;;;;1.98;0.40;;;;;;;33.37;43.14;100094.81;7395867;19;20427;-56
2023/08/10 03:10:22;;;;;;;1.45;0.30;;;;;;;32.69;44.21;100083.41;7394458;19;20012;-56
2023/08/10 03:12:56;;;;;;;0.20;0.10;;;;;;;32.33;44.88;100086.09;7395507;19;20013;-56
2023/08/10 03:15:28;;;;;;;0.45;0.40;;;;;;;33.44;42.98;100080.09;7398637;19;20035;-57
2023/08/10 03:17:57;;;;;;;0.25;0.10;;;;;;;32.06;44.94;100080.75;7395182;19;20031;-56
2023/08/10 03:20:29;;;;;;;0.40;0.32;;;;;;;31.98;44.58;100081.00;7395402;19;20016;-56
2023/08/10 03:23:00;;;;;;;0.40;0.30;;;;;;;30.30;47.04;100081.44;7392868;19;20021;-56
2023/08/10 03:25:32;;;;;;;0.40;0.20;;;;;;;31.14;46.43;100073.13;7397308;19;20044;-56
2023/08/10 03:35:05;;;;;;;0.90;0.20;;;;;;;33.13;42.62;100067.38;7392987;19;20035;-54
2023/08/10 03:37:31;;;;;;;2.50;0.22;;;;;;;32.96;42.87;100059.09;7392265;19;20014;-53
2023/08/10 03:39:58;;;;;;;0.38;0.28;;;;;;;33.27;42.81;100063.19;7395566;19;20477;-54
2023/08/10 03:42:25;;;;;;;1.27;0.45;;;;;;;33.29;42.33;100062.56;7392666;19;20091;-54
2023/08/10 03:44:54;;;;;;;0.10;0.10;;;;;;;33.10;42.23;100054.94;7394772;19;20347;-54
2023/08/10 03:47:22;;;;;;;0.20;0.20;;;;;;;33.01;42.52;100055.81;7391461;19;20007;-54
2023/08/10 03:49:49;;;;;;;0.52;0.25;;;;;;;32.09;43.67;100051.47;7390984;19;20014;-53
2023/08/10 03:52:15;;;;;;;0.20;0.10;;;;;;;31.31;44.53;100049.81;7392560;19;20011;-53
2023/08/10 03:54:42;;;;;;;0.20;0.17;;;;;;;31.64;44.65;100047.00;7392400;19;20021;-54
2023/08/10 03:57:09;;;;;;;0.93;0.60;;;;;;;31.34;44.61;100051.44;7391345;19;20018;-54
2023/08/10 03:59:35;;;;;;;0.43;0.43;;;;;;;34.49;40.86;100044.94;7393403;19;20011;-54
2023/08/10 04:02:01;;;;;;;0.35;0.20;;;;;;;35.69;39.03;100045.56;7392688;19;20359;-54
2023/08/10 04:04:28;;;;;;;2.60;0.30;;;;;;;35.96;38.51;100038.19;7395459;19;20033;-54
2023/08/10 04:06:55;;;;;;;0.15;0.15;;;;;;;35.85;38.20;100039.06;7392514;19;20050;-53
2023/08/10 04:09:21;;;;;;;0.10;0.10;;;;;;;37.35;36.28;100041.78;7392901;19;20490;-53
2023/08/10 04:11:48;;;;;;;0.15;0.15;;;;;;;37.98;35.29;100043.00;7392284;19;20018;-53
2023/08/10 04:14:14;;;;;;;0.10;0.10;;;;;;;34.23;38.78;100047.91;7395834;19;20026;-53
2023/08/10 04:16:41;;;;;;;3.63;0.35;;;;;;;36.07;37.53;100046.75;7393195;19;20082;-53
2023/08/10 04:19:07;;;;;;;0.98;0.20;;;;;;;35.07;38.08;100045.25;7392511;19;20047;-53
2023/08/10 04:21:34;;;;;;;0.93;0.32;;;;;;;36.66;36.17;100047.38;7393183;19;20081;-53
2023/08/10 04:24:00;;;;;;;3.22;0.55;;;;;;;36.55;36.24;100045.41;7395853;19;20022;-53
2023/08/10 04:26:26;;;;;;;0.38;0.10;;;;;;;36.79;35.81;100046.53;7393111;19;20027;-53
2023/08/10 04:28:52;;;;;;;1.40;0.30;;;;;;;34.57;37.85;100033.84;7392803;19;20017;-53
2023/08/10 04:31:19;;;;;;;0.20;0.20;;;;;;;33.38;39.11;100047.22;7393351;19;20014;-53
2023/08/10 04:33:46;;;;;;;0.22;0.20;;;;;;;32.10;41.09;100052.19;7392910;19;20010;-53
2023/08/10 04:36:12;;;;;;;0.20;0.20;;;;;;;32.64;40.28;100055.69;7393025;19;20010;-53
2023/08/10 04:38:39;;;;;;;0.50;0.13;;;;;;;31.49;41.97;100052.44;7393365;19;20018;-53
2023/08/10 04:41:05;;;;;;;0.65;0.20;;;;;;;32.39;41.31;100061.28;7394938;19;20038;-53
2023/08/10 04:43:31;;;;;;;2.83;0.30;;;;;;;32.84;40.46;100059.06;7402062;19;20013;-53
2023/08/10 04:45:57;;;;;;;0.10;0.10;;;;;;;32.04;41.13;100060.44;7396716;19;20019;-53
2023/08/10 04:48:23;;;;;;;0.20;0.10;;;;;;;30.49;43.55;100064.91;7400997;19;20010;-53
2023/08/10 04:50:51;;;;;;;0.60;0.10;;;;;;;29.86;44.66;100065.34;7400627;19;20372;-53
2023/08/10 04:53:17;;;;;;;0.40;0.10;;;;;;;29.66;45.80;100065.91;7400829;19;20038;-53
2023/08/10 04:55:44;;;;;;;0.73;0.20;;;;;;;28.47;47.21;100066.06;7404858;19;20018;-52
2023/08/10 04:58:10;;;;;;;0.20;0.20;;;;;;;30.12;45.79;100060.00;7399714;19;20408;-53
2023/08/10 05:00:36;;;;;;;1.65;0.20;;;;;;;32.03;42.80;100061.84;7401024;19;20350;-53
2023/08/10 05:03:02;;;;;;;0.68;0.25;;;;;;;30.22;44.74;100057.84;7399501;19;20011;-53
2023/08/10 05:05:28;;;;;;;0.10;0.10;;;;;;;29.16;46.84;100054.25;7403227;19;20348;-53
2023/08/10 05:07:54;;;;;;;0.22;0.17;;;;;;;29.92;45.57;100059.28;7399020;19;20418;-53
2023/08/10 05:10:21;;;;;;;0.22;0.22;;;;;;;30.39;45.44;100060.56;7398688;19;20014;-53
2023/08/10 05:12:48;;;;;;;0.25;0.25;;;;;;;30.99;44.54;100061.97;7399042;19;20014;-53
2023/08/10 05:15:14;;;;;;;0.32;0.32;;;;;;;33.39;41.05;100066.06;7403476;19;20006;-53
2023/08/10 05:17:41;;;;;;;0.40;0.28;;;;;;;30.51;44.47;100067.19;7398799;19;20019;-53
2023/08/10 05:20:11;;;;;;;0.10;0.10;;;;;;;30.84;44.62;100062.34;7399564;19;20010;-53
2023/08/10 05:22:42;;;;;;;0.40;0.33;;;;;;;30.12;45.87;100048.50;7399206;19;20007;-53
2023/08/10 05:25:11;;;;;;;0.15;0.15;;;;;;;30.03;45.78;100055.03;7402471;19;20014;-53
2023/08/10 05:27:38;;;;;;;0.45;0.40;;;;;;;29.47;47.11;100060.94;7397403;19;20015;-53
2023/08/10 05:30:08;;;;;;;0.38;0.20;;;;;;;29.42;47.55;100053.38;7400269;19;20054;-53
2023/08/10 05:32:36;;;;;;;1.70;0.43;;;;;;;31.10;45.54;100058.44;7401085;19;20013;-53
2023/08/10 05:35:04;;;;;;;0.75;0.20;;;;;;;30.79;45.81;100054.03;7402060;19;20303;-53
2023/08/10 05:37:31;;;;;;;0.13;0.10;;;;;;;31.00;44.94;100054.88;7401684;19;20034;-53
2023/08/10 05:39:59;;;;;;;0.35;0.35;;;;;;;30.33;46.39;100055.13;7403406;19;20021;-53
2023/08/10 05:42:25;;;;;;;0.20;0.10;;;;;;;30.83;46.15;100055.09;7398898;19;20014;-53
2023/08/10 05:44:52;;;;;;;0.32;0.20;;;;;;;30.31;46.36;100054.22;7402058;19;20006;-54
2023/08/10 05:47:18;;;;;;;1.75;0.30;;;;;;;29.46;48.39;100065.16;7401873;19;20421;-53
2023/08/10 05:49:44;;;;;;;0.32;0.32;;;;;;;29.72;48.41;100064.25;7398295;19;20014;-53
2023/08/10 05:52:10;;;;;;;1.58;0.40;;;;;;;29.34;49.14;100063.50;7397657;19;20015;-53
2023/08/10 05:54:36;;;;;;;0.22;0.20;;;;;;;31.07;46.50;100071.19;7400843;19;20424;-53
2023/08/10 05:57:02;;;;;;;0.57;0.50;;;;;;;30.44;47.41;100068.88;7397474;19;20021;-53
2023/08/10 05:59:29;;;;;;;0.30;0.20;;;;;;;31.04;46.79;100060.13;7397569;19;20009;-53
2023/08/10 06:01:56;;;;;;;1.13;0.38;;;;;;;32.59;44.82;100062.59;7397381;19;20022;-53
2023/08/10 06:04:22;;;;;;;0.38;0.30;;;;;;;33.02;44.06;100074.66;7400096;19;20015;-53
2023/08/10 06:06:48;;;;;;;3.30;0.40;;;;;;;33.06;43.56;100057.59;7395701;19;20482;-53
2023/08/10 06:09:16;;;;;;;0.73;0.52;;;;;;;33.19;43.57;100064.84;7395881;19;20023;-53
2023/08/10 06:11:42;;;;;;;0.30;0.20;;;;;;;32.20;45.13;100066.50;7396742;19;20011;-53
2023/08/10 06:14:09;;;;;;;0.75;0.35;;;;;;;32.16;45.54;100067.03;7398633;19;20007;-53
2023/08/10 06:16:36;;;;;;;0.95;0.70;;;;;;;35.28;41.55;100052.84;7396702;19;20395;-53
2023/08/10 06:19:02;;;;;;;0.13;0.10;;;;;;;35.96;40.12;100056.34;7397947;19;20019;-53
2023/08/10 06:21:28;;;;;;;0.28;0.20;;;;;;;35.26;41.22;100056.38;7397907;19;20018;-53
2023/08/10 06:23:54;;;;;;;0.63;0.17;;;;;;;34.90;41.90;100060.22;7399184;19;20018;-53
2023/08/10 06:26:21;;;;;;;0.90;0.25;;;;;;;35.31;41.64;100069.69;7395669;19;20087;-53
2023/08/10 06:28:48;;;;;;;0.55;0.43;;;;;;;35.22;41.67;100067.75;7396842;19;20462;-53
2023/08/10 06:31:16;;;;;;;3.58;0.30;;;;;;;34.53;43.33;100077.00;7396940;19;20014;-53
2023/08/10 06:33:42;;;;;;;4.97;0.50;;;;;;;33.42;45.25;100073.44;7396367;19;20768;-53
2023/08/10 06:36:10;;;;;;;0.65;0.13;;;;;;;33.53;45.86;100069.81;7397427;19;20021;-53
2023/08/10 06:38:36;;;;;;;0.70;0.30;;;;;;;34.12;45.42;100068.97;7397748;19;20014;-53
2023/08/10 06:41:03;;;;;;;2.97;0.40;;;;;;;33.85;46.26;100068.78;7397489;19;20014;-53
2023/08/10 06:43:29;;;;;;;3.20;0.73;;;;;;;33.28;47.71;100078.38;7394603;19;20037;-54
2023/08/10 06:45:55;;;;;;;0.55;0.40;;;;;;;34.59;46.36;100066.53;7394159;19;20015;-54
2023/08/10 06:48:21;;;;;;;1.30;0.52;;;;;;;34.24;47.46;100063.84;7395863;19;20010;-54
2023/08/10 06:50:48;;;;;;;1.73;0.75;;;;;;;42.01;37.62;100067.94;7396898;19;20510;-53
2023/08/10 06:53:14;;;;;;;0.85;0.40;;;;;;;35.98;44.50;100073.09;7396545;19;20019;-53
2023/08/10 06:55:42;;;;;;;0.40;0.35;;;;;;;36.55;45.06;100067.88;7399652;19;20035;-53
2023/08/10 06:58:08;;;;;;;1.30;0.68;;;;;;;35.96;45.56;100061.41;7395555;19;20019;-52
2023/08/10 07:00:35;;;;;;;0.40;0.38;;;;;;;36.20;45.41;100050.97;7396252;19;20011;-53
2023/08/10 07:03:02;;;;;;;0.10;0.10;;;;;;;37.48;44.33;100061.22;7394578;19;20469;-53
2023/08/10 07:05:29;;;;;;;3.08;0.68;;;;;;;43.18;36.95;100058.81;7397949;19;20514;-53
2023/08/10 07:07:56;;;;;;;3.15;0.50;;;;;;;44.27;35.16;100059.28;7395504;19;20014;-54
2023/08/10 07:10:22;;;;;;;0.63;0.52;;;;;;;39.30;40.13;100064.09;7395400;19;20015;-54
2023/08/10 07:12:48;;;;;;;6.50;0.80;;;;;;;36.45;44.11;100071.06;7395177;19;20002;-53
2023/08/10 07:15:15;;;;;;;1.35;0.40;;;;;;;37.06;45.15;100069.56;7399440;19;20074;-54
2023/08/10 07:17:41;;;;;;;2.75;0.52;;;;;;;35.05;48.15;100068.31;7394916;19;20014;-54
2023/08/10 07:20:08;;;;;;;2.30;0.40;;;;;;;34.76;50.15;100073.97;7395091;19;20026;-54
2023/08/10 07:22:35;;;;;;;0.73;0.20;;;;;;;35.45;49.53;100070.44;7395445;19;20529;-54
2023/08/10 07:25:05;;;;;;;1.27;0.40;;;;;;;35.48;49.73;100066.25;7398434;19;20017;-54
2023/08/10 07:27:33;;;;;;;1.98;0.30;;;;;;;35.43;50.22;100067.41;7394547;19;20021;-54
2023/08/10 07:30:00;;;;;;;0.90;0.20;;;;;;;37.81;47.00;100058.31;7395241;19;20070;-54
2023/08/10 07:32:29;;;;;;;3.22;0.80;;;;;;;39.95;43.73;100059.06;7394952;19;20698;-53
2023/08/10 07:34:56;;;;;;;0.73;0.60;;;;;;;38.99;44.34;100052.75;7398680;19;20390;-54
2023/08/10 07:37:22;;;;;;;0.88;0.60;;;;;;;36.37;48.94;100059.78;7394520;19;20031;-54
2023/08/10 07:39:48;;;;;;;5.30;0.95;;;;;;;35.84;50.36;100060.78;7398077;19;20015;-54
2023/08/10 07:42:14;;;;;;;0.60;0.20;;;;;;;35.00;53.06;100063.69;7395162;19;20364;-54
2023/08/10 07:44:40;;;;;;;1.35;0.35;;;;;;;38.40;47.41;100053.44;7395530;19;20014;-54
2023/08/10 07:47:07;;;;;;;2.28;0.70;;;;;;;35.66;51.78;100061.38;7393529;19;20014;-54
2023/08/10 07:49:33;;;;;;;3.50;0.57;;;;;;;36.09;52.18;100054.78;7394757;19;20019;-54
2023/08/10 07:51:59;;;;;;;0.52;0.22;;;;;;;36.63;51.00;100068.25;7393999;19;20021;-54
2023/08/10 07:54:26;;;;;;;1.20;0.10;;;;;;;35.57;53.55;100056.56;7396352;19;20018;-54
2023/08/10 07:56:52;;;;;;;0.52;0.40;;;;;;;35.46;54.12;100063.22;7393734;19;20025;-54
2023/08/10 07:59:18;;;;;;;3.03;0.80;;;;;;;34.37;57.18;100061.66;7393922;19;20074;-54
2023/08/10 08:01:44;;;;;;;2.20;0.95;;;;;;;35.19;57.04;100062.50;7394211;19;20017;-54
2023/08/10 08:04:10;;;;;;;1.55;0.50;;;;;;;35.53;56.37;100062.16;7394856;19;20069;-54
2023/08/10 08:06:36;;;;;;;1.25;0.63;;;;;;;35.62;56.16;100064.06;7391106;19;20007;-54
2023/08/10 08:09:07;;;;;;;1.27;0.40;;;;;;;38.77;50.33;100057.78;7393395;19;20017;-54
2023/08/10 08:11:36;;;;;;;1.10;0.30;;;;;;;39.23;48.21;100060.22;7393024;19;20487;-54
2023/08/10 08:14:03;;;;;;;3.75;1.17;;;;;;;38.27;49.59;100057.28;7395313;19;20014;-54
2023/08/10 08:16:29;;;;;;;4.15;0.57;;;;;;;36.50;53.34;100061.13;7397384;19;20021;-54
2023/08/10 08:18:55;;;;;;;2.33;0.22;;;;;;;37.06;52.96;100063.00;7400001;19;20018;-54
2023/08/10 08:21:26;;;;;;;1.48;0.30;;;;;;;36.73;53.22;100063.69;7401389;19;20042;-54
2023/08/10 08:23:54;;;;;;;0.57;0.13;;;;;;;39.85;48.86;100064.56;7401827;19;20478;-55
2023/08/10 08:26:23;;;;;;;1.15;0.20;;;;;;;39.58;48.10;100053.44;7399019;19;20011;-54
2023/08/10 08:28:50;;;;;;;1.80;0.70;;;;;;;37.36;51.07;100057.81;7400227;19;20033;-55
2023/08/10 08:31:17;;;;;;;0.82;0.30;;;;;;;36.81;52.76;100055.34;7400140;19;20463;-55
2023/08/10 08:33:43;;;;;;;0.93;0.10;;;;;;;36.18;54.42;100053.78;7402490;19;20035;-55
2023/08/10 08:36:09;;;;;;;1.13;0.40;;;;;;;35.63;56.09;100047.41;7401134;19;20007;-55
2023/08/10 08:38:37;;;;;;;1.88;0.50;;;;;;;37.24;52.40;100050.03;7401660;19;20082;-55
2023/08/10 08:41:06;;;;;;;0.28;0.10;;;;;;;37.02;53.06;100051.94;7400327;19;20028;-54
2023/08/10 08:43:33;;;;;;;0.55;0.30;;;;;;;39.14;49.71;100043.13;7399325;19;20647;-55
2023/08/10 08:46:01;;;;;;;0.60;0.20;;;;;;;40.19;47.27;100049.63;7398540;19;20569;-55
2023/08/10 08:48:27;;;;;;;2.67;0.70;;;;;;;40.22;46.51;100042.44;7400665;19;20442;-55
2023/08/10 08:50:55;;;;;;;0.90;0.30;;;;;;;38.60;49.40;100042.56;7398828;19;20014;-55
2023/08/10 08:53:22;;;;;;;0.17;0.15;;;;;;;37.67;51.83;100040.22;7400911;19;20025;-55
2023/08/10 08:55:49;;;;;;;1.42;0.08;;;;;;;39.00;50.29;100025.13;7404907;19;20494;-55
2023/08/10 08:58:16;;;;;;;0.25;0.08;;;;;;;40.29;48.75;100023.66;7399515;19;20481;-55
2023/08/10 09:00:48;;;;;;;2.70;0.32;;;;;;;39.12;48.50;100019.72;7400145;19;20074;-55
2023/08/10 09:03:20;;;;;;;0.38;0.20;;;;;;;39.91;48.67;100015.19;7397960;19;20033;-55
2023/08/10 09:05:47;;;;;;;1.30;0.65;;;;;;;41.16;46.11;100012.34;7396881;19;20010;-55
2023/08/10 09:08:15;;;;;;;0.65;0.40;;;;;;;38.68;49.48;100007.94;7397838;19;20508;-55
2023/08/10 09:10:43;;;;;;;1.45;0.40;;;;;;;39.03;49.22;100012.13;7399495;19;20101;-55
2023/08/10 09:13:14;;;;;;;0.80;0.35;;;;;;;41.64;45.41;100012.88;7399901;19;20006;-54
2023/08/10 09:15:42;;;;;;;0.90;0.20;;;;;;;39.92;47.48;100010.81;7398299;19;20014;-54
2023/08/10 09:18:09;;;;;;;0.70;0.20;;;;;;;39.41;48.36;100013.47;7398624;19;20021;-54
2023/08/10 09:20:42;;;;;;;1.85;0.20;;;;;;;40.00;46.94;100008.19;7397175;19;20027;-55
2023/08/10 09:23:10;;;;;;;2.50;0.13;;;;;;;40.26;46.21;100013.34;7400045;19;20018;-56
2023/08/10 09:25:38;;;;;;;2.13;0.52;;;;;;;47.91;36.58;99995.56;7402753;19;20007;-55
2023/08/10 09:28:10;;;;;;;3.45;0.70;;;;;;;50.65;32.68;100000.25;7398832;19;20018;-56
2023/08/10 09:30:37;;;;;;;0.28;0.10;;;;;;;36.53;47.25;100016.31;7397257;19;20324;-56
2023/08/10 09:33:04;;;;;;;0.70;0.10;;;;;;;31.01;90.12;100013.22;7398834;19;20505;-55
2023/08/10 09:35:32;;;;;;;0.68;0.25;;;;;;;29.88;100.00;100019.53;7402333;19;20010;-56
2023/08/10 09:38:02;;;;;;;2.47;0.38;;;;;;;29.48;100.00;100019.38;7396532;19;20010;-55
2023/08/10 09:40:28;;;;;;;1.60;0.28;;;;;;;28.86;100.00;100021.09;7402624;19;20011;-55
2023/08/10 09:42:54;;;;;;;8.32;0.17;;;;;;;28.11;100.00;100019.41;7397491;19;20045;-55
2023/08/10 09:45:22;;;;;;;0.80;0.10;;;;;;;28.01;100.00;100004.28;7401987;19;20014;-55
2023/08/10 09:47:48;;;;;;;1.80;0.22;;;;;;;27.93;100.00;100006.47;7395755;19;20030;-56
2023/08/10 09:50:16;;;;;;;0.82;0.40;;;;;;;27.83;100.00;100002.78;7397107;19;20018;-55
2023/08/10 09:52:43;;;;;;;1.42;0.63;;;;;;;27.80;100.00;100004.75;7397374;19;20462;-56
2023/08/10 09:55:10;;;;;;;1.27;0.32;;;;;;;27.47;100.00;100000.56;7401447;19;20054;-56
2023/08/10 09:57:43;;;;;;;1.00;0.28;;;;;;;28.00;100.00;100000.69;7397480;19;20014;-55
2023/08/10 10:00:22;;;;;;;0.35;0.20;;;;;;;27.83;100.00;100003.53;7398267;19;20011;-55
2023/08/10 10:02:49;;;;;;;1.45;0.10;;;;;;;27.63;100.00;100019.84;7397239;19;20018;-56
2023/08/10 10:05:17;;;;;;;2.05;0.43;;;;;;;27.60;100.00;100018.16;7401315;19;20014;-56
2023/08/10 10:07:45;;;;;;;2.30;0.45;;;;;;;27.88;100.00;100011.09;7397639;19;20014;-55
2023/08/10 10:10:15;;;;;;;1.60;0.10;;;;;;;28.16;100.00;100013.41;7396266;19;20030;-55
2023/08/10 10:12:47;;;;;;;0.55;0.25;;;;;;;28.44;100.00;100009.91;7401471;19;20070;-54
2023/08/10 10:15:16;;;;;;;0.63;0.10;;;;;;;28.94;100.00;100003.75;7400645;19;20485;-53
2023/08/10 10:17:43;;;;;;;0.30;0.03;;;;;;;29.95;100.00;99994.88;7395827;19;20015;-54
2023/08/10 10:20:11;;;;;;;12.98;0.28;;;;;;;29.51;100.00;99995.22;7395719;19;20462;-55
2023/08/10 10:22:38;;;;;;;1.45;0.20;;;;;;;35.14;85.26;99994.19;7397039;19;20017;-54
2023/08/10 10:25:05;;;;;;;0.68;0.10;;;;;;;39.60;66.63;100001.03;7399874;19;20337;-55
2023/08/10 10:27:40;;;;;;;10.18;0.77;;;;;;;38.00;72.88;99998.69;7396513;19;20022;-55
2023/08/10 10:30:17;;;;;;;0.40;0.13;;;;;;;39.01;61.64;100004.03;7396844;19;20019;-55
2023/08/10 10:32:46;;;;;;;2.45;0.55;;;;;;;36.70;57.06;100003.28;7396289;19;20021;-55
2023/08/10 10:35:23;;;;;;;2.72;0.30;;;;;;;30.71;94.48;100000.34;7399207;19;20019;-54
2023/08/10 10:37:57;;;;;;;0.57;0.17;;;;;;;30.72;100.00;100006.84;7396156;19;20018;-54
2023/08/10 10:40:25;;;;;;;0.52;0.17;;;;;;;45.51;48.14;99982.09;7399593;19;20017;-53
2023/08/10 10:43:00;;;;;;;0.40;0.10;;;;;;;35.23;65.30;99993.97;7398068;19;20007;-55
2023/08/10 10:45:27;;;;;;;7.30;0.20;;;;;;;38.86;59.72;99980.91;7399610;19;20014;-56
2023/08/10 10:47:55;;;;;;;0.60;0.20;;;;;;;42.73;49.51;99975.84;7395352;19;20328;-56
2023/08/10 10:50:29;;;;;;;1.00;0.10;;;;;;;40.05;48.21;99977.69;7395596;19;20014;-56
2023/08/10 10:53:00;;;;;;;0.95;0.52;;;;;;;36.71;55.38;99973.56;7395555;19;20070;-57
2023/08/10 10:55:40;;;;;;;0.75;0.20;;;;;;;31.54;94.70;99979.34;7400456;19;20025;-56
2023/08/10 10:58:08;;;;;;;0.30;0.10;;;;;;;40.30;56.23;99964.59;7395285;19;20010;-55
2023/08/10 11:00:36;;;;;;;0.47;0.10;;;;;;;46.61;41.77;99961.44;7395043;19;20028;-55
2023/08/10 11:03:04;;;;;;;0.00;0.00;;;;;;;33.14;77.24;99982.25;7393630;19;20501;-55
2023/08/10 11:05:31;;;;;;;0.85;0.20;;;;;;;35.15;66.38;99963.84;7396223;19;20014;-55
2023/08/10 11:08:03;;;;;;;1.10;0.10;;;;;;;33.80;74.74;99971.72;7395025;19;20016;-57
2023/08/10 11:10:37;;;;;;;0.93;0.45;;;;;;;30.87;96.53;99968.34;7395004;19;20481;-55
2023/08/10 11:13:05;;;;;;;0.40;0.15;;;;;;;43.40;51.28;99954.41;7395018;19;20014;-54
2023/08/10 11:15:31;;;;;;;2.00;0.45;;;;;;;37.34;67.16;99961.81;7399955;19;20007;-54
2023/08/10 11:17:57;;;;;;;0.10;0.00;;;;;;;32.03;81.04;99976.13;7395046;19;20014;-54
2023/08/10 11:20:24;;;;;;;2.75;0.10;;;;;;;30.82;93.89;99978.78;7394895;19;20027;-53
2023/08/10 11:22:52;;;;;;;0.70;0.10;;;;;;;30.27;99.73;99979.19;7395061;19;20022;-54
2023/08/10 11:25:31;;;;;;;0.13;0.03;;;;;;;33.62;87.21;99956.22;7397049;19;20010;-54
2023/08/10 11:27:57;;;;;;;2.10;0.52;;;;;;;40.81;51.63;99949.25;7394368;19;20018;-54
2023/08/10 11:30:24;;;;;;;0.85;0.10;;;;;;;40.76;50.58;99942.56;7394771;19;20551;-54
2023/08/10 11:32:53;;;;;;;1.33;0.10;;;;;;;48.42;36.94;99934.06;7394561;19;20018;-54
2023/08/10 11:35:25;;;;;;;0.98;0.00;;;;;;;50.19;31.28;99931.88;7398328;19;20014;-54
2023/08/10 11:37:51;;;;;;;0.82;0.10;;;;;;;43.76;35.45;99945.47;7391632;19;20018;-54
2023/08/10 11:40:20;;;;;;;0.50;0.20;;;;;;;41.78;38.31;99940.09;7398709;19;20011;-54
2023/08/10 11:42:48;;;;;;;0.22;0.10;;;;;;;40.89;42.00;99943.69;7394708;19;20376;-54
2023/08/10 11:45:23;;;;;;;0.80;0.25;;;;;;;41.02;42.76;99951.31;7399349;19;20033;-54
2023/08/10 11:47:58;;;;;;;4.00;0.20;;;;;;;40.97;41.73;99949.75;7393543;19;20006;-55
2023/08/10 11:50:30;;;;;;;3.70;0.20;;;;;;;40.94;40.69;99945.25;7391674;19;20021;-54
2023/08/10 11:53:08;;;;;;;0.52;0.00;;;;;;;41.60;39.80;99936.72;7393983;19;20393;-54